Time;durP1;ratioP1;P1;durP2;ratioP2;P2;SDS_P1;SDS_P2;PMS_P1;PMS_P2;Temp;Humidity;BMP_temperature;BMP_pressure;BME280_temperature;BME280_humidity;BME280_pressure;Samples;Min_cycle;Max_cycle;Signal;HPM_P1;HPM_P2
2023/07/23 00:00:27;;;;;;;20.90;11.23;;;;;;;;;;5111424;28;20363;-66
2023/07/23 00:02:54;;;;;;;24.98;11.27;;;;;;;;;;5109878;28;20047;-66
2023/07/23 00:05:23;;;;;;;25.08;12.05;;;;;;;;;;5113154;28;20178;-66
2023/07/23 00:07:50;;;;;;;27.73;12.73;;;;;;;;;;5115252;27;20051;-66
2023/07/23 00:10:16;;;;;;;24.98;12.05;;;;;;;;;;5110089;28;20047;-65
2023/07/23 00:12:42;;;;;;;22.08;11.70;;;;;;;;;;5110537;28;20047;-66
2023/07/23 00:15:09;;;;;;;25.15;11.82;;;;;;;;;;5112376;28;20075;-66
2023/07/23 00:17:35;;;;;;;27.25;12.00;;;;;;;;;;5111669;28;20417;-66
2023/07/23 00:20:03;;;;;;;26.48;12.95;;;;;;;;;;5114371;28;20070;-65
2023/07/23 00:22:30;;;;;;;42.15;13.35;;;;;;;;;;5092381;28;20051;-66
2023/07/23 00:24:57;;;;;;;25.40;13.93;;;;;;;;;;5090798;28;20047;-65
2023/07/23 00:27:26;;;;;;;27.52;13.32;;;;;;;;;;5106413;28;20055;-65
2023/07/23 00:29:52;;;;;;;26.48;13.63;;;;;;;;;;5117987;28;20058;-66
2023/07/23 00:32:18;;;;;;;27.45;14.15;;;;;;;;;;5110379;28;20097;-66
2023/07/23 00:34:44;;;;;;;33.92;15.95;;;;;;;;;;5114248;28;20070;-66
2023/07/23 00:37:10;;;;;;;28.63;16.00;;;;;;;;;;5110450;28;20108;-66
2023/07/23 00:39:37;;;;;;;28.27;15.13;;;;;;;;;;5109781;28;20048;-66
2023/07/23 00:42:03;;;;;;;35.20;14.55;;;;;;;;;;5093732;28;20065;-66
2023/07/23 00:44:29;;;;;;;34.72;14.40;;;;;;;;;;5109938;28;20047;-65
2023/07/23 00:46:57;;;;;;;33.95;13.95;;;;;;;;;;5112080;28;20265;-66
2023/07/23 00:49:23;;;;;;;33.72;14.00;;;;;;;;;;5102639;28;20044;-66
2023/07/23 00:51:49;;;;;;;31.92;14.85;;;;;;;;;;5114695;28;20039;-66
2023/07/23 00:54:16;;;;;;;33.22;13.50;;;;;;;;;;5108723;28;20415;-66
2023/07/23 00:56:43;;;;;;;32.95;14.13;;;;;;;;;;5111355;28;20036;-65
2023/07/23 00:59:10;;;;;;;31.85;13.13;;;;;;;;;;5104107;28;20048;-65
2023/07/23 01:01:36;;;;;;;35.65;13.82;;;;;;;;;;5134157;27;20054;-65
2023/07/23 01:04:03;;;;;;;32.97;14.85;;;;;;;;;;5111088;28;20035;-66
2023/07/23 01:06:29;;;;;;;35.80;15.00;;;;;;;;;;5110457;28;20089;-65
2023/07/23 01:08:56;;;;;;;28.10;13.60;;;;;;;;;;5107152;28;20130;-65
2023/07/23 01:11:23;;;;;;;30.23;13.48;;;;;;;;;;5110851;28;20088;-66
2023/07/23 01:13:51;;;;;;;33.90;14.93;;;;;;;;;;5109259;28;20391;-66
2023/07/23 01:16:18;;;;;;;36.88;15.10;;;;;;;;;;5109708;28;20118;-65
2023/07/23 01:18:44;;;;;;;33.50;14.27;;;;;;;;;;5109755;28;20040;-66
2023/07/23 01:21:10;;;;;;;35.53;13.38;;;;;;;;;;5111060;28;20048;-66
2023/07/23 01:23:36;;;;;;;32.60;13.60;;;;;;;;;;5110008;28;20039;-66
2023/07/23 01:26:03;;;;;;;41.60;15.13;;;;;;;;;;5103966;28;20123;-66
2023/07/23 01:28:30;;;;;;;38.35;15.18;;;;;;;;;;5116801;27;20135;-66
2023/07/23 01:30:56;;;;;;;40.78;14.60;;;;;;;;;;5113842;27;20048;-66
2023/07/23 01:33:23;;;;;;;34.13;14.52;;;;;;;;;;5114368;28;20047;-66
2023/07/23 01:35:52;;;;;;;36.53;14.18;;;;;;;;;;5115663;27;20036;-65
2023/07/23 01:38:18;;;;;;;31.10;12.80;;;;;;;;;;5114474;28;20392;-65
2023/07/23 01:40:45;;;;;;;31.35;12.70;;;;;;;;;;5120383;27;20375;-65
2023/07/23 01:43:11;;;;;;;31.75;12.73;;;;;;;;;;5112655;27;20104;-65
2023/07/23 01:45:37;;;;;;;37.78;12.63;;;;;;;;;;5113318;27;20500;-65
2023/07/23 01:48:03;;;;;;;30.70;12.63;;;;;;;;;;5113670;28;20390;-65
2023/07/23 01:50:29;;;;;;;31.48;11.98;;;;;;;;;;5111609;28;20063;-66
2023/07/23 01:52:55;;;;;;;34.03;13.45;;;;;;;;;;5113689;27;20389;-65
2023/07/23 01:55:21;;;;;;;33.17;12.90;;;;;;;;;;5110495;28;20130;-65
2023/07/23 01:57:48;;;;;;;32.72;13.52;;;;;;;;;;5107414;28;20044;-66
2023/07/23 02:00:14;;;;;;;39.97;13.07;;;;;;;;;;5112641;28;20048;-66
2023/07/23 02:02:40;;;;;;;37.03;13.23;;;;;;;;;;5107877;27;20044;-66
2023/07/23 02:05:06;;;;;;;34.70;12.23;;;;;;;;;;5112281;28;20051;-65
2023/07/23 02:07:33;;;;;;;33.35;11.35;;;;;;;;;;5112888;27;20084;-65
2023/07/23 02:09:59;;;;;;;31.75;13.07;;;;;;;;;;5111518;27;20039;-65
2023/07/23 02:12:25;;;;;;;36.83;13.02;;;;;;;;;;5114802;27;20505;-65
2023/07/23 02:14:51;;;;;;;30.92;12.80;;;;;;;;;;5114609;28;20133;-65
2023/07/23 02:17:17;;;;;;;26.95;11.75;;;;;;;;;;5113527;27;20035;-65
2023/07/23 02:19:43;;;;;;;32.20;13.10;;;;;;;;;;5114094;28;20558;-65
2023/07/23 02:22:10;;;;;;;27.17;12.43;;;;;;;;;;5114238;28;20079;-65
2023/07/23 02:24:36;;;;;;;27.85;12.32;;;;;;;;;;5112977;28;20039;-66
2023/07/23 02:27:03;;;;;;;29.45;12.07;;;;;;;;;;5112602;27;20062;-65
2023/07/23 02:29:29;;;;;;;28.08;11.77;;;;;;;;;;5112859;27;20043;-65
2023/07/23 02:31:55;;;;;;;26.38;11.32;;;;;;;;;;5111289;27;20663;-66
2023/07/23 02:34:21;;;;;;;32.05;11.98;;;;;;;;;;5109937;27;20047;-66
2023/07/23 02:36:48;;;;;;;32.65;12.77;;;;;;;;;;5111141;27;20036;-65
2023/07/23 02:39:14;;;;;;;27.95;11.60;;;;;;;;;;5111902;28;20438;-65
2023/07/23 02:41:40;;;;;;;28.73;11.88;;;;;;;;;;5113753;28;20045;-65
2023/07/23 02:44:07;;;;;;;25.48;11.63;;;;;;;;;;5113002;27;20044;-65
2023/07/23 02:46:33;;;;;;;23.60;11.45;;;;;;;;;;5110636;27;20162;-65
2023/07/23 02:48:59;;;;;;;22.95;10.98;;;;;;;;;;5114980;27;20036;-65
2023/07/23 02:51:25;;;;;;;25.50;12.05;;;;;;;;;;5113532;28;20213;-65
2023/07/23 02:53:52;;;;;;;33.00;12.63;;;;;;;;;;5111190;28;20031;-65
2023/07/23 02:56:18;;;;;;;25.00;12.27;;;;;;;;;;5113421;28;20048;-65
2023/07/23 02:58:45;;;;;;;25.58;12.57;;;;;;;;;;5111409;28;20071;-65
2023/07/23 03:01:11;;;;;;;25.40;12.98;;;;;;;;;;5112764;27;20051;-65
2023/07/23 03:03:37;;;;;;;24.40;13.00;;;;;;;;;;5115321;27;20070;-65
2023/07/23 03:06:06;;;;;;;22.27;12.65;;;;;;;;;;5094573;28;20041;-65
2023/07/23 03:08:32;;;;;;;26.08;13.57;;;;;;;;;;5112792;28;20134;-65
2023/07/23 03:10:58;;;;;;;26.73;12.93;;;;;;;;;;5112118;28;20133;-65
2023/07/23 03:13:24;;;;;;;25.45;12.05;;;;;;;;;;5110960;28;20043;-65
2023/07/23 03:15:50;;;;;;;21.83;12.32;;;;;;;;;;5112690;28;20043;-65
2023/07/23 03:18:17;;;;;;;23.65;12.77;;;;;;;;;;5113775;27;20167;-65
2023/07/23 03:20:43;;;;;;;22.83;11.65;;;;;;;;;;5093590;28;20039;-65
2023/07/23 03:23:10;;;;;;;28.38;13.00;;;;;;;;;;5112919;27;20118;-65
2023/07/23 03:25:36;;;;;;;23.98;12.90;;;;;;;;;;5113102;27;20473;-65
2023/07/23 03:28:02;;;;;;;22.00;12.65;;;;;;;;;;5110752;28;20032;-65
2023/07/23 03:30:29;;;;;;;25.65;12.65;;;;;;;;;;5111468;28;20098;-65
2023/07/23 03:32:55;;;;;;;25.63;12.68;;;;;;;;;;5114346;27;20027;-65
2023/07/23 03:35:21;;;;;;;28.48;13.05;;;;;;;;;;5109809;27;20069;-65
2023/07/23 03:37:48;;;;;;;26.83;12.95;;;;;;;;;;5112893;28;20066;-65
2023/07/23 03:40:14;;;;;;;27.55;13.57;;;;;;;;;;5116174;27;20047;-65
2023/07/23 03:42:40;;;;;;;25.23;12.77;;;;;;;;;;5110258;28;20031;-65
2023/07/23 03:45:07;;;;;;;26.08;12.80;;;;;;;;;;5111360;28;20155;-65
2023/07/23 03:47:33;;;;;;;24.02;12.15;;;;;;;;;;5114225;27;20031;-65
2023/07/23 03:49:59;;;;;;;24.75;13.05;;;;;;;;;;5095728;28;20051;-66
2023/07/23 03:52:26;;;;;;;29.50;13.40;;;;;;;;;;5088107;27;20107;-65
2023/07/23 03:54:52;;;;;;;26.25;12.32;;;;;;;;;;5111653;27;20039;-65
2023/07/23 03:57:18;;;;;;;29.52;13.95;;;;;;;;;;5110825;28;20055;-65
2023/07/23 03:59:45;;;;;;;27.80;12.80;;;;;;;;;;5112451;28;20040;-65
2023/07/23 04:02:12;;;;;;;25.30;12.82;;;;;;;;;;5112609;27;20043;-66
2023/07/23 04:04:38;;;;;;;22.52;11.27;;;;;;;;;;5112436;28;20050;-65
2023/07/23 04:07:05;;;;;;;24.88;12.40;;;;;;;;;;5112293;28;20036;-65
2023/07/23 04:09:32;;;;;;;29.92;13.65;;;;;;;;;;5112073;28;20118;-65
2023/07/23 04:11:58;;;;;;;21.88;12.55;;;;;;;;;;5112180;28;20122;-65
2023/07/23 04:14:24;;;;;;;26.65;12.35;;;;;;;;;;5111656;28;20074;-65
2023/07/23 04:16:51;;;;;;;25.65;11.88;;;;;;;;;;5111373;28;20027;-65
2023/07/23 04:19:17;;;;;;;31.33;14.35;;;;;;;;;;5111490;28;20040;-65
2023/07/23 04:21:44;;;;;;;24.70;12.30;;;;;;;;;;5111650;28;20445;-65
2023/07/23 04:24:10;;;;;;;26.25;13.10;;;;;;;;;;5110340;28;20368;-66
2023/07/23 04:26:36;;;;;;;24.92;11.88;;;;;;;;;;5111660;28;20108;-64
2023/07/23 04:29:03;;;;;;;27.77;12.68;;;;;;;;;;5109485;28;20044;-70
2023/07/23 04:31:31;;;;;;;24.48;11.70;;;;;;;;;;5111013;28;20063;-65
2023/07/23 04:33:58;;;;;;;26.17;13.00;;;;;;;;;;5111534;28;20048;-65
2023/07/23 04:36:24;;;;;;;26.90;13.10;;;;;;;;;;5112098;28;20092;-65
2023/07/23 04:38:50;;;;;;;28.10;13.15;;;;;;;;;;5107239;28;20044;-65
2023/07/23 04:41:16;;;;;;;26.05;12.77;;;;;;;;;;5102136;28;20039;-65
2023/07/23 04:43:43;;;;;;;28.65;13.23;;;;;;;;;;5107426;28;20397;-65
2023/07/23 04:46:09;;;;;;;26.55;13.07;;;;;;;;;;5110853;28;20138;-65
2023/07/23 04:48:37;;;;;;;21.48;12.65;;;;;;;;;;5109904;28;20413;-65
2023/07/23 04:51:04;;;;;;;23.67;12.55;;;;;;;;;;5104898;28;20063;-65
2023/07/23 04:53:30;;;;;;;30.17;13.10;;;;;;;;;;5106484;28;20439;-64
2023/07/23 04:55:57;;;;;;;24.42;12.13;;;;;;;;;;5111333;28;20152;-65
2023/07/23 04:58:25;;;;;;;29.85;12.75;;;;;;;;;;5112330;28;20127;-65
2023/07/23 05:00:52;;;;;;;27.48;13.52;;;;;;;;;;5115299;28;20051;-65
2023/07/23 05:03:18;;;;;;;27.67;13.35;;;;;;;;;;5108251;27;20040;-65
2023/07/23 05:05:49;;;;;;;26.65;13.80;;;;;;;;;;5134006;27;20152;-65
2023/07/23 05:08:16;;;;;;;24.85;12.60;;;;;;;;;;5115424;28;20784;-65
2023/07/23 05:10:42;;;;;;;23.60;12.55;;;;;;;;;;5114405;28;20051;-65
2023/07/23 05:13:08;;;;;;;29.75;13.45;;;;;;;;;;5096241;28;20136;-65
2023/07/23 05:15:34;;;;;;;24.85;12.73;;;;;;;;;;5115720;28;20039;-65
2023/07/23 05:18:00;;;;;;;28.95;12.80;;;;;;;;;;5117722;27;20063;-65
2023/07/23 05:20:26;;;;;;;25.58;12.13;;;;;;;;;;5113001;27;20399;-65
2023/07/23 05:22:54;;;;;;;25.02;14.25;;;;;;;;;;5113442;28;20043;-65
2023/07/23 05:25:21;;;;;;;26.05;13.43;;;;;;;;;;5115317;28;20035;-65
2023/07/23 05:27:47;;;;;;;20.42;12.00;;;;;;;;;;5114100;28;20446;-65
2023/07/23 05:30:14;;;;;;;25.58;12.98;;;;;;;;;;5115185;28;20047;-65
2023/07/23 05:32:40;;;;;;;25.27;13.35;;;;;;;;;;5114979;27;20146;-65
2023/07/23 05:35:06;;;;;;;21.48;13.45;;;;;;;;;;5113863;27;20146;-65
2023/07/23 05:37:32;;;;;;;23.75;12.98;;;;;;;;;;5113963;28;20114;-65
2023/07/23 05:39:59;;;;;;;26.02;13.40;;;;;;;;;;5115231;28;20043;-65
2023/07/23 05:42:25;;;;;;;26.00;13.95;;;;;;;;;;5112801;28;20486;-65
2023/07/23 05:44:51;;;;;;;22.75;13.30;;;;;;;;;;5114946;28;20043;-65
2023/07/23 05:47:17;;;;;;;23.23;13.40;;;;;;;;;;5112985;27;20039;-65
2023/07/23 05:49:43;;;;;;;25.77;14.05;;;;;;;;;;5114501;28;20039;-65
2023/07/23 05:52:10;;;;;;;23.80;13.82;;;;;;;;;;5109297;27;20052;-65
2023/07/23 05:54:36;;;;;;;24.27;14.23;;;;;;;;;;5100198;27;20545;-65
2023/07/23 05:57:02;;;;;;;27.67;15.00;;;;;;;;;;5114908;28;20395;-65
2023/07/23 05:59:29;;;;;;;24.05;13.60;;;;;;;;;;5113342;28;20505;-65
2023/07/23 06:01:55;;;;;;;28.10;14.85;;;;;;;;;;5095588;28;20072;-65
2023/07/23 06:04:21;;;;;;;26.83;13.48;;;;;;;;;;5112826;27;20051;-65
2023/07/23 06:06:47;;;;;;;25.80;14.27;;;;;;;;;;5113464;28;20118;-65
2023/07/23 06:09:14;;;;;;;26.45;13.52;;;;;;;;;;5110815;28;20047;-65
2023/07/23 06:11:41;;;;;;;23.27;13.13;;;;;;;;;;5111965;28;20519;-65
2023/07/23 06:14:08;;;;;;;24.30;14.30;;;;;;;;;;5114431;28;20050;-65
2023/07/23 06:16:34;;;;;;;29.65;15.02;;;;;;;;;;5113508;28;20093;-65
2023/07/23 06:19:00;;;;;;;27.05;13.40;;;;;;;;;;5132351;27;20083;-65
2023/07/23 06:21:27;;;;;;;25.88;14.25;;;;;;;;;;5113873;28;20054;-65
2023/07/23 06:23:53;;;;;;;25.70;13.95;;;;;;;;;;5093393;27;20096;-65
2023/07/23 06:26:19;;;;;;;27.55;15.43;;;;;;;;;;5106524;27;20405;-65
2023/07/23 06:28:45;;;;;;;22.52;13.98;;;;;;;;;;5112985;27;20088;-65
2023/07/23 06:31:11;;;;;;;23.27;14.30;;;;;;;;;;5100405;27;20043;-65
2023/07/23 06:33:38;;;;;;;28.15;14.93;;;;;;;;;;5109729;28;20046;-65
2023/07/23 06:36:04;;;;;;;23.70;14.40;;;;;;;;;;5113061;28;20079;-65
2023/07/23 06:38:30;;;;;;;27.70;14.50;;;;;;;;;;5111535;28;20035;-65
2023/07/23 06:40:56;;;;;;;24.75;14.40;;;;;;;;;;5113898;28;20128;-65
2023/07/23 06:43:23;;;;;;;31.00;13.95;;;;;;;;;;5112790;27;20453;-65
2023/07/23 06:45:50;;;;;;;32.00;16.33;;;;;;;;;;5110457;27;20403;-65
2023/07/23 06:48:18;;;;;;;25.25;15.07;;;;;;;;;;5114111;28;20040;-65
2023/07/23 06:50:47;;;;;;;32.83;16.33;;;;;;;;;;5112756;28;20051;-65
2023/07/23 06:53:14;;;;;;;26.83;14.60;;;;;;;;;;5095245;28;20040;-65
2023/07/23 06:55:59;;;;;;;25.25;14.25;;;;;;;;;;5113850;28;20044;-65
2023/07/23 06:58:25;;;;;;;27.65;14.63;;;;;;;;;;5109021;27;20165;-65
2023/07/23 07:00:51;;;;;;;25.98;15.07;;;;;;;;;;5109474;27;20547;-65
2023/07/23 07:03:18;;;;;;;30.80;15.45;;;;;;;;;;5115250;27;20506;-65
2023/07/23 07:05:44;;;;;;;25.38;15.55;;;;;;;;;;5111641;28;20086;-65
2023/07/23 07:08:10;;;;;;;37.88;16.58;;;;;;;;;;5111957;28;20604;-65
2023/07/23 07:10:36;;;;;;;31.27;16.80;;;;;;;;;;5114317;27;20055;-65
2023/07/23 07:13:02;;;;;;;29.30;16.20;;;;;;;;;;5112310;28;20048;-65
2023/07/23 07:15:29;;;;;;;28.02;15.77;;;;;;;;;;5113517;28;20031;-65
2023/07/23 07:17:55;;;;;;;31.27;15.93;;;;;;;;;;5113452;28;20048;-65
2023/07/23 07:20:21;;;;;;;32.28;18.33;;;;;;;;;;5111029;28;20394;-65
2023/07/23 07:22:47;;;;;;;33.40;18.65;;;;;;;;;;5113623;27;20039;-65
2023/07/23 07:25:14;;;;;;;40.55;19.27;;;;;;;;;;5104228;27;20038;-65
2023/07/23 07:27:40;;;;;;;30.70;17.63;;;;;;;;;;5114875;27;20055;-65
2023/07/23 07:30:06;;;;;;;34.72;18.52;;;;;;;;;;5101868;28;20048;-65
2023/07/23 07:32:33;;;;;;;38.50;18.40;;;;;;;;;;5108149;28;20135;-65
2023/07/23 07:34:59;;;;;;;38.95;18.85;;;;;;;;;;5097902;27;20360;-65
2023/07/23 07:37:25;;;;;;;40.85;18.90;;;;;;;;;;5110213;28;20050;-65
2023/07/23 07:39:51;;;;;;;40.80;19.25;;;;;;;;;;5110905;28;20040;-65
2023/07/23 07:42:18;;;;;;;44.80;19.20;;;;;;;;;;5111138;28;20530;-65
2023/07/23 07:44:44;;;;;;;39.35;19.42;;;;;;;;;;5110537;28;20131;-65
2023/07/23 07:47:10;;;;;;;43.72;17.85;;;;;;;;;;5113808;27;20051;-65
2023/07/23 07:49:37;;;;;;;41.00;19.17;;;;;;;;;;5108028;27;20340;-65
2023/07/23 07:52:03;;;;;;;45.83;20.33;;;;;;;;;;5110446;28;20095;-65
2023/07/23 07:54:29;;;;;;;43.85;20.10;;;;;;;;;;5109876;28;20471;-65
2023/07/23 07:56:55;;;;;;;47.80;21.90;;;;;;;;;;5088176;28;20379;-65
2023/07/23 07:59:22;;;;;;;48.85;21.85;;;;;;;;;;5111779;28;20040;-65
2023/07/23 08:01:48;;;;;;;47.85;21.48;;;;;;;;;;5105452;28;20046;-66
2023/07/23 08:04:14;;;;;;;42.15;22.45;;;;;;;;;;5112489;28;20040;-65
2023/07/23 08:06:41;;;;;;;43.42;21.70;;;;;;;;;;5110437;28;20058;-65
2023/07/23 08:09:10;;;;;;;44.88;21.70;;;;;;;;;;5111491;28;20520;-65
2023/07/23 08:11:37;;;;;;;42.13;21.65;;;;;;;;;;5111167;27;20479;-65
2023/07/23 08:14:04;;;;;;;44.13;22.38;;;;;;;;;;5110804;28;20056;-65
2023/07/23 08:16:30;;;;;;;42.95;22.80;;;;;;;;;;5122350;27;20090;-77
2023/07/23 08:18:57;;;;;;;39.15;23.65;;;;;;;;;;5111731;28;20035;-65
2023/07/23 08:21:23;;;;;;;40.80;23.88;;;;;;;;;;5107116;28;20479;-65
2023/07/23 08:23:50;;;;;;;43.30;23.02;;;;;;;;;;5102024;28;20063;-65
2023/07/23 08:26:20;;;;;;;42.65;26.17;;;;;;;;;;5109961;28;20209;-65
2023/07/23 08:28:51;;;;;;;38.08;24.98;;;;;;;;;;5102502;28;20036;-65
2023/07/23 08:31:21;;;;;;;37.72;25.08;;;;;;;;;;5113056;28;20093;-65
2023/07/23 08:33:50;;;;;;;42.35;26.42;;;;;;;;;;5120179;27;20130;-65
2023/07/23 08:36:17;;;;;;;41.40;28.42;;;;;;;;;;5111388;27;20040;-65
2023/07/23 08:38:43;;;;;;;37.50;26.55;;;;;;;;;;5113300;27;20046;-66
2023/07/23 08:41:32;;;;;;;40.38;26.60;;;;;;;;;;5110707;28;20040;-65
2023/07/23 08:44:16;;;;;;;39.10;26.10;;;;;;;;;;5105453;28;20047;-65
2023/07/23 08:46:46;;;;;;;41.78;27.25;;;;;;;;;;5103145;28;20035;-65
2023/07/23 08:49:12;;;;;;;34.50;26.02;;;;;;;;;;5114211;28;20089;-65
2023/07/23 08:51:46;;;;;;;42.90;29.15;;;;;;;;;;5113358;28;20056;-65
2023/07/23 08:54:13;;;;;;;43.85;28.35;;;;;;;;;;5116017;28;20056;-65
2023/07/23 08:56:40;;;;;;;36.70;27.45;;;;;;;;;;5102565;27;20044;-65
2023/07/23 08:59:07;;;;;;;36.88;26.33;;;;;;;;;;5112183;27;20445;-65
2023/07/23 09:01:34;;;;;;;34.72;27.15;;;;;;;;;;5112855;27;20097;-65
2023/07/23 09:04:01;;;;;;;36.47;25.40;;;;;;;;;;5115699;28;20143;-65
2023/07/23 09:06:30;;;;;;;31.27;25.02;;;;;;;;;;5114902;28;20047;-66
2023/07/23 09:09:00;;;;;;;32.92;24.08;;;;;;;;;;5114255;28;20047;-66
2023/07/23 09:11:27;;;;;;;29.20;24.02;;;;;;;;;;5100364;28;20079;-65
2023/07/23 09:13:57;;;;;;;28.10;22.90;;;;;;;;;;5112420;28;20040;-65
2023/07/23 09:16:24;;;;;;;32.20;24.02;;;;;;;;;;5110035;27;20046;-65
2023/07/23 09:18:50;;;;;;;30.67;23.30;;;;;;;;;;5109009;28;20092;-65
2023/07/23 09:21:22;;;;;;;30.23;23.63;;;;;;;;;;5113957;27;20087;-65
2023/07/23 09:23:56;;;;;;;35.22;22.65;;;;;;;;;;5129968;27;20406;-65
2023/07/23 09:26:23;;;;;;;;;;;;;;;;;;5113726;28;20379;-65
2023/07/23 09:28:50;;;;;;;30.45;21.13;;;;;;;;;;5121638;27;19919;-65
2023/07/23 09:31:21;;;;;;;36.97;24.33;;;;;;;;;;5123577;27;20082;-65
2023/07/23 09:33:48;;;;;;;32.13;24.48;;;;;;;;;;5111151;28;20032;-65
2023/07/23 09:36:14;;;;;;;31.88;22.73;;;;;;;;;;5113707;28;20111;-65
2023/07/23 09:38:45;;;;;;;32.25;21.25;;;;;;;;;;5103455;27;20047;-66
2023/07/23 09:41:12;;;;;;;30.80;22.67;;;;;;;;;;5108945;28;20044;-65
2023/07/23 09:43:41;;;;;;;29.40;21.45;;;;;;;;;;5108517;28;20372;-66
2023/07/23 09:46:07;;;;;;;30.58;21.90;;;;;;;;;;5113314;28;20517;-66
2023/07/23 09:48:34;;;;;;;32.75;22.58;;;;;;;;;;5114274;28;20043;-66
2023/07/23 09:51:01;;;;;;;32.75;24.05;;;;;;;;;;5112496;27;20411;-65
2023/07/23 09:53:29;;;;;;;30.60;24.55;;;;;;;;;;5109104;27;20044;-65
2023/07/23 09:55:56;;;;;;;34.17;24.00;;;;;;;;;;5113702;28;20071;-65
2023/07/23 09:58:23;;;;;;;31.00;24.10;;;;;;;;;;5113805;28;20071;-65
2023/07/23 10:00:50;;;;;;;35.97;24.95;;;;;;;;;;5113305;28;20051;-65
2023/07/23 10:03:17;;;;;;;31.58;23.67;;;;;;;;;;5114814;28;20036;-65
2023/07/23 10:05:43;;;;;;;35.25;25.38;;;;;;;;;;5112302;27;20091;-65
2023/07/23 10:08:10;;;;;;;34.08;24.55;;;;;;;;;;5111189;27;20079;-65
2023/07/23 10:10:36;;;;;;;35.35;26.23;;;;;;;;;;5113847;27;20566;-65
2023/07/23 10:13:03;;;;;;;33.28;23.42;;;;;;;;;;5107831;28;20036;-65
2023/07/23 10:15:29;;;;;;;37.50;22.92;;;;;;;;;;5111791;28;20433;-65
2023/07/23 10:18:00;;;;;;;32.75;24.65;;;;;;;;;;5114404;28;20051;-66
2023/07/23 10:20:29;;;;;;;32.28;24.23;;;;;;;;;;5105519;27;20487;-66
2023/07/23 10:22:56;;;;;;;31.02;22.92;;;;;;;;;;5109756;28;20055;-66
2023/07/23 10:25:23;;;;;;;32.63;23.75;;;;;;;;;;5106681;28;20059;-66
2023/07/23 10:27:54;;;;;;;37.58;24.33;;;;;;;;;;5102457;27;20123;-66
2023/07/23 10:30:20;;;;;;;32.92;24.80;;;;;;;;;;5106909;28;20110;-65
2023/07/23 10:33:07;;;;;;;30.92;22.15;;;;;;;;;;5108475;27;20090;-66
2023/07/23 10:35:52;;;;;;;28.83;21.27;;;;;;;;;;5112119;28;20071;-66
2023/07/23 10:38:25;;;;;;;31.77;21.52;;;;;;;;;;5115317;27;20385;-65
2023/07/23 10:40:51;;;;;;;31.15;20.33;;;;;;;;;;5118227;27;20118;-65
2023/07/23 10:43:18;;;;;;;29.58;20.45;;;;;;;;;;5116346;27;20047;-66
2023/07/23 10:46:05;;;;;;;29.45;19.85;;;;;;;;;;5112586;28;20035;-66
2023/07/23 10:48:50;;;;;;;29.02;20.42;;;;;;;;;;5109832;27;20040;-66
2023/07/23 10:51:20;;;;;;;25.95;20.83;;;;;;;;;;5111857;27;20445;-66
2023/07/23 10:53:55;;;;;;;28.77;21.02;;;;;;;;;;5097890;28;20085;-66
2023/07/23 10:56:25;;;;;;;28.55;20.30;;;;;;;;;;5145340;27;20131;-66
2023/07/23 10:58:54;;;;;;;26.35;20.75;;;;;;;;;;5113479;27;20031;-67
2023/07/23 11:01:25;;;;;;;27.00;21.17;;;;;;;;;;5113317;27;20187;-67
2023/07/23 11:03:53;;;;;;;27.30;21.00;;;;;;;;;;5110932;28;20032;-67
2023/07/23 11:06:29;;;;;;;31.00;21.42;;;;;;;;;;5113191;28;20086;-67
2023/07/23 11:08:57;;;;;;;34.85;20.38;;;;;;;;;;5137435;27;20114;-67
2023/07/23 11:11:34;;;;;;;26.88;19.75;;;;;;;;;;5115868;27;20036;-67
2023/07/23 11:14:02;;;;;;;26.88;19.02;;;;;;;;;;5112113;28;20107;-65
2023/07/23 11:16:28;;;;;;;27.85;19.33;;;;;;;;;;5108841;27;20097;-66
2023/07/23 11:18:55;;;;;;;27.42;18.50;;;;;;;;;;5107195;28;20437;-66
2023/07/23 11:21:21;;;;;;;25.45;18.30;;;;;;;;;;5111190;27;20039;-65
2023/07/23 11:23:47;;;;;;;24.13;18.85;;;;;;;;;;5106416;27;20039;-65
2023/07/23 11:26:17;;;;;;;28.80;19.35;;;;;;;;;;5117614;27;20058;-65
2023/07/23 11:28:43;;;;;;;28.88;20.73;;;;;;;;;;5114086;27;20402;-66
2023/07/23 11:31:10;;;;;;;24.35;18.67;;;;;;;;;;5111648;28;20048;-66
2023/07/23 11:33:36;;;;;;;27.55;18.75;;;;;;;;;;5110699;28;20040;-66
2023/07/23 11:36:02;;;;;;;26.50;19.67;;;;;;;;;;5110976;28;20463;-66
2023/07/23 11:38:32;;;;;;;26.50;19.73;;;;;;;;;;5094541;28;20391;-66
2023/07/23 11:40:59;;;;;;;27.25;20.05;;;;;;;;;;5107739;28;20047;-66
2023/07/23 11:43:26;;;;;;;26.73;19.67;;;;;;;;;;5111520;28;20047;-66
2023/07/23 11:45:52;;;;;;;31.55;22.10;;;;;;;;;;5111140;28;20048;-66
2023/07/23 11:48:20;;;;;;;27.40;20.52;;;;;;;;;;5112020;28;20516;-66
2023/07/23 11:50:46;;;;;;;30.30;22.38;;;;;;;;;;5112224;28;20063;-66
2023/07/23 11:53:13;;;;;;;27.80;21.27;;;;;;;;;;5111798;28;20095;-66
2023/07/23 11:55:40;;;;;;;28.38;20.85;;;;;;;;;;5111412;28;20173;-66
2023/07/23 11:58:07;;;;;;;27.60;19.92;;;;;;;;;;5112294;28;20044;-66
2023/07/23 12:00:39;;;;;;;26.73;19.67;;;;;;;;;;5110477;28;20124;-66
2023/07/23 12:03:09;;;;;;;26.80;20.60;;;;;;;;;;5110976;28;20048;-66
2023/07/23 12:05:39;;;;;;;23.80;19.80;;;;;;;;;;5111776;28;20107;-66
2023/07/23 12:08:05;;;;;;;22.75;19.27;;;;;;;;;;5109190;28;20126;-66
2023/07/23 12:10:32;;;;;;;19.88;17.40;;;;;;;;;;5111046;28;20078;-66
2023/07/23 12:13:06;;;;;;;25.05;18.58;;;;;;;;;;5112192;28;20043;-66
2023/07/23 12:15:33;;;;;;;23.55;18.27;;;;;;;;;;5111541;28;20452;-66
2023/07/23 12:17:59;;;;;;;22.17;18.10;;;;;;;;;;5112239;28;20050;-66
2023/07/23 12:20:26;;;;;;;21.27;18.13;;;;;;;;;;5112214;28;20096;-66
2023/07/23 12:22:53;;;;;;;24.70;17.80;;;;;;;;;;5109948;28;20062;-66
2023/07/23 12:25:19;;;;;;;22.80;18.10;;;;;;;;;;5110626;28;20092;-66
2023/07/23 12:27:46;;;;;;;20.25;17.75;;;;;;;;;;5111700;28;20518;-66
2023/07/23 12:30:12;;;;;;;22.27;18.80;;;;;;;;;;5109827;28;20044;-66
2023/07/23 12:32:39;;;;;;;19.70;17.45;;;;;;;;;;5112228;28;20352;-66
2023/07/23 12:35:06;;;;;;;23.05;17.48;;;;;;;;;;5110618;28;20136;-66
2023/07/23 12:37:34;;;;;;;18.10;16.13;;;;;;;;;;5110861;28;20391;-66
2023/07/23 12:40:04;;;;;;;19.30;16.15;;;;;;;;;;5112001;28;20142;-66
2023/07/23 12:42:31;;;;;;;19.55;16.85;;;;;;;;;;5110278;28;20039;-66
2023/07/23 12:44:57;;;;;;;17.75;15.20;;;;;;;;;;5112081;28;20531;-66
2023/07/23 12:47:25;;;;;;;17.75;15.75;;;;;;;;;;5093895;28;20035;-66
2023/07/23 12:49:51;;;;;;;17.92;14.95;;;;;;;;;;5109825;28;20113;-66
2023/07/23 12:52:21;;;;;;;16.27;14.38;;;;;;;;;;5110446;28;20391;-66
2023/07/23 12:54:47;;;;;;;16.27;14.57;;;;;;;;;;5110389;28;20082;-66
2023/07/23 12:57:14;;;;;;;16.02;13.85;;;;;;;;;;5109115;28;20398;-66
2023/07/23 12:59:42;;;;;;;15.93;13.98;;;;;;;;;;5109957;28;20040;-67
2023/07/23 13:02:08;;;;;;;14.30;12.75;;;;;;;;;;5111955;28;20044;-66
2023/07/23 13:04:34;;;;;;;15.10;13.50;;;;;;;;;;5110862;28;20044;-66
2023/07/23 13:07:01;;;;;;;14.93;13.32;;;;;;;;;;5109666;28;20479;-66
2023/07/23 13:09:27;;;;;;;15.20;12.32;;;;;;;;;;5112212;28;20115;-66
2023/07/23 13:11:53;;;;;;;14.55;12.32;;;;;;;;;;5109052;28;20043;-66
2023/07/23 13:14:19;;;;;;;14.07;11.52;;;;;;;;;;5110746;28;20069;-66
2023/07/23 13:16:45;;;;;;;14.77;11.02;;;;;;;;;;5110546;28;20052;-66
2023/07/23 13:19:12;;;;;;;13.77;9.80;;;;;;;;;;5110090;28;20086;-66
2023/07/23 13:21:38;;;;;;;12.88;8.98;;;;;;;;;;5114294;28;20054;-66
2023/07/23 13:24:04;;;;;;;7.45;6.03;;;;;;;;;;5115660;28;20126;-66
2023/07/23 13:26:31;;;;;;;9.82;6.53;;;;;;;;;;5114412;28;20066;-66
2023/07/23 13:28:58;;;;;;;8.25;6.30;;;;;;;;;;5114010;28;20129;-66
2023/07/23 13:31:25;;;;;;;13.93;8.02;;;;;;;;;;5115421;28;20370;-66
2023/07/23 13:33:51;;;;;;;12.82;9.95;;;;;;;;;;5113283;28;20036;-66
2023/07/23 13:36:17;;;;;;;12.95;9.82;;;;;;;;;;5113898;27;20101;-66
2023/07/23 13:38:43;;;;;;;11.73;8.52;;;;;;;;;;5101641;27;20571;-66
2023/07/23 13:41:10;;;;;;;17.73;9.50;;;;;;;;;;5114814;28;20043;-66
2023/07/23 13:43:36;;;;;;;13.73;9.02;;;;;;;;;;5114884;28;20043;-66
2023/07/23 13:46:02;;;;;;;11.57;8.13;;;;;;;;;;5112395;28;20046;-66
2023/07/23 13:48:28;;;;;;;16.15;8.00;;;;;;;;;;5114513;28;20038;-66
2023/07/23 13:50:54;;;;;;;15.85;7.50;;;;;;;;;;5112784;28;20060;-66
2023/07/23 13:53:21;;;;;;;19.17;7.00;;;;;;;;;;5114084;28;20420;-66
2023/07/23 13:55:47;;;;;;;15.02;5.57;;;;;;;;;;5114750;28;20107;-66
2023/07/23 13:58:13;;;;;;;11.70;4.82;;;;;;;;;;5113125;28;20051;-66
2023/07/23 14:00:39;;;;;;;12.98;4.35;;;;;;;;;;5112860;28;20044;-67
2023/07/23 14:03:05;;;;;;;11.27;4.80;;;;;;;;;;5113175;28;20089;-66
2023/07/23 14:05:32;;;;;;;12.93;4.40;;;;;;;;;;5113384;28;20051;-67
2023/07/23 14:07:58;;;;;;;14.73;4.50;;;;;;;;;;5113601;27;20137;-66
2023/07/23 14:10:25;;;;;;;11.07;4.38;;;;;;;;;;5114303;28;20044;-66
2023/07/23 14:12:51;;;;;;;14.75;4.32;;;;;;;;;;5114429;28;20131;-66
2023/07/23 14:15:17;;;;;;;14.73;4.10;;;;;;;;;;5113741;28;20118;-66
2023/07/23 14:17:44;;;;;;;13.38;4.63;;;;;;;;;;5113166;28;20047;-66